Graysville, Georgia
Current Conditions -  °F | °C
As of 2:53 AM on Saturday 01 Nov 2014 (Local Time) from KCHA Reporting Station
Overcast Overcast  
Wind Chill: 29°   Ceiling: 3300
Heat Index: 38°   Visibility: 10mi
Dew Point: 31°   Wind: 16mph
Humidity: 76%   Direction: 300°WNW
Pressure: 30.02"   Gusts: 24mph
Location:  34.98°N, 85.14°W
Report Text: KCHA 010653Z AUTO 30014G21KT 10SM BKN033 BKN090 OVC110 03/M01 A3002 RMK AO2 RAE0554B28E43 SLP165 P0000 T00331006
Loading
Personal Weather Stations






























Interactive Weather Map
Tropical Storm Tracking
New forecast layout! Learn more

10-Day Weather Forecast

Advertisements
Track Severe Weather on mobile